Time;durP1;ratioP1;P1;durP2;ratioP2;P2;SDS_P1;SDS_P2;PMS_P1;PMS_P2;Temp;Humidity;BMP_temperature;BMP_pressure;BME280_temperature;BME280_humidity;BME280_pressure;Samples;Min_cycle;Max_cycle;Signal;HPM_P1;HPM_P2
2023/08/05 00:00:22;;;;;;;;;;;19.10;92.40;;;;;;7387819;19;20144;-78
2023/08/05 00:02:51;;;;;;;;;;;19.10;92.40;;;;;;7409542;19;19936;-78
2023/08/05 00:05:19;;;;;;;;;;;19.00;92.50;;;;;;7386671;19;19923;-77
2023/08/05 00:07:50;;;;;;;;;;;19.00;92.50;;;;;;7386791;19;19928;-77
2023/08/05 00:10:19;;;;;;;;;;;19.10;92.40;;;;;;7387360;19;19910;-77
2023/08/05 00:12:48;;;;;;;;;;;19.00;92.40;;;;;;7387478;19;19914;-77
2023/08/05 00:15:16;;;;;;;;;;;19.00;92.30;;;;;;7387353;19;19938;-77
2023/08/05 00:17:44;;;;;;;;;;;19.00;92.20;;;;;;7406903;19;20243;-77
2023/08/05 00:20:14;;;;;;;;;;;18.90;92.20;;;;;;7387455;19;19927;-77
2023/08/05 00:22:42;;;;;;;;;;;18.80;92.50;;;;;;7386468;19;19983;-78
2023/08/05 00:25:14;;;;;;;;;;;18.80;92.60;;;;;;7388038;19;19921;-77
2023/08/05 00:27:42;;;;;;;;;;;18.80;92.50;;;;;;7385992;19;19911;-77
2023/08/05 00:30:11;;;;;;;;;;;18.80;92.40;;;;;;7386002;19;19932;-78
2023/08/05 00:32:39;;;;;;;;;;;18.80;92.30;;;;;;7409272;19;19919;-77
2023/08/05 00:35:08;;;;;;;;;;;18.80;92.30;;;;;;7385334;19;19906;-76
2023/08/05 00:37:37;;;;;;;;;;;18.80;92.30;;;;;;7384658;19;19911;-76
2023/08/05 00:40:07;;;;;;;;;;;18.80;92.30;;;;;;7385623;19;19918;-77
2023/08/05 00:42:38;;;;;;;;;;;18.80;92.30;;;;;;7385457;19;19979;-76
2023/08/05 00:45:07;;;;;;;;;;;18.80;92.20;;;;;;7385759;19;19924;-76
2023/08/05 00:47:35;;;;;;;;;;;18.80;92.10;;;;;;7408047;19;19919;-77
2023/08/05 00:50:04;;;;;;;;;;;18.80;92.10;;;;;;7382751;19;19915;-77
2023/08/05 00:52:32;;;;;;;;;;;18.80;92.10;;;;;;7385468;19;19914;-77
2023/08/05 00:55:01;;;;;;;;;;;18.70;91.90;;;;;;7384598;19;20150;-76
2023/08/05 00:57:29;;;;;;;;;;;18.70;92.10;;;;;;7383731;19;20159;-77
2023/08/05 01:00:01;;;;;;;;;;;18.70;92.00;;;;;;7384488;19;20192;-76
2023/08/05 01:02:29;;;;;;;;;;;18.70;92.00;;;;;;7407374;19;19922;-77
2023/08/05 01:04:57;;;;;;;;;;;18.70;92.10;;;;;;7383828;19;19915;-76
2023/08/05 01:07:29;;;;;;;;;;;18.60;92.00;;;;;;7384246;19;19958;-76
2023/08/05 01:09:58;;;;;;;;;;;18.70;92.10;;;;;;7383380;19;19920;-76
2023/08/05 01:12:27;;;;;;;;;;;18.60;91.80;;;;;;7383833;19;19911;-77
2023/08/05 01:14:55;;;;;;;;;;;18.60;91.80;;;;;;7385279;19;19922;-77
2023/08/05 01:17:26;;;;;;;;;;;18.60;91.80;;;;;;7406163;19;19919;-77
2023/08/05 01:19:55;;;;;;;;;;;18.70;91.80;;;;;;7382104;19;19932;-77
2023/08/05 01:22:26;;;;;;;;;;;18.60;91.80;;;;;;7382514;19;19910;-77
2023/08/05 01:25:00;;;;;;;;;;;18.60;91.90;;;;;;7383144;19;19915;-77
2023/08/05 01:27:32;;;;;;;;;;;18.60;91.80;;;;;;7381578;19;20215;-76
2023/08/05 01:30:03;;;;;;;;;;;18.50;91.80;;;;;;7387689;19;20160;-75
2023/08/05 01:32:32;;;;;;;;;;;18.50;91.80;;;;;;7412547;19;19910;-76
2023/08/05 01:35:01;;;;;;;;;;;18.40;92.00;;;;;;7389732;19;19911;-77
2023/08/05 01:37:29;;;;;;;;;;;18.40;91.90;;;;;;7389652;19;19919;-76
2023/08/05 01:39:58;;;;;;;;;;;18.40;91.90;;;;;;7393058;19;19911;-77
2023/08/05 01:42:26;;;;;;;;;;;18.40;91.90;;;;;;7394481;19;19971;-77
2023/08/05 01:44:57;;;;;;;;;;;18.40;91.90;;;;;;7397830;19;19914;-77
2023/08/05 01:47:26;;;;;;;;;;;18.40;91.90;;;;;;7417684;19;20162;-77
2023/08/05 01:49:54;;;;;;;;;;;18.40;91.90;;;;;;7391945;19;19957;-77
2023/08/05 01:52:22;;;;;;;;;;;18.40;91.90;;;;;;7392025;19;20056;-77
2023/08/05 01:54:51;;;;;;;;;;;18.40;91.80;;;;;;7391084;19;20208;-77
2023/08/05 01:57:19;;;;;;;;;;;18.40;91.80;;;;;;7388498;19;19914;-77
2023/08/05 01:59:48;;;;;;;;;;;18.40;92.00;;;;;;7412805;19;19943;-77
2023/08/05 02:02:19;;;;;;;;;;;18.30;92.10;;;;;;7389763;19;19906;-76
2023/08/05 02:04:47;;;;;;;;;;;18.30;91.70;;;;;;7389522;19;19911;-77
2023/08/05 02:07:16;;;;;;;;;;;18.30;91.90;;;;;;7390381;19;19914;-77
2023/08/05 02:09:44;;;;;;;;;;;18.30;92.10;;;;;;7389424;19;19911;-77
2023/08/05 02:12:13;;;;;;;;;;;18.40;92.20;;;;;;7388386;19;19952;-76
2023/08/05 02:14:41;;;;;;;;;;;18.40;92.40;;;;;;7410336;19;20226;-76
2023/08/05 02:17:10;;;;;;;;;;;18.40;92.60;;;;;;7389259;19;19907;-76
2023/08/05 02:19:41;;;;;;;;;;;18.40;92.70;;;;;;7388874;19;19917;-76
2023/08/05 02:22:09;;;;;;;;;;;18.40;92.70;;;;;;7390318;19;19903;-76
2023/08/05 02:24:38;;;;;;;;;;;18.40;92.80;;;;;;7388341;19;20019;-76
2023/08/05 02:27:07;;;;;;;;;;;18.40;92.70;;;;;;7393325;19;19939;-76
2023/08/05 02:29:35;;;;;;;;;;;18.50;92.80;;;;;;7411207;19;19918;-77
2023/08/05 02:32:04;;;;;;;;;;;18.50;92.80;;;;;;7385676;19;19922;-78
2023/08/05 02:34:32;;;;;;;;;;;18.50;92.80;;;;;;7387377;19;19913;-76
2023/08/05 02:37:04;;;;;;;;;;;18.50;92.70;;;;;;7388260;19;19911;-76
2023/08/05 02:39:32;;;;;;;;;;;18.60;92.60;;;;;;7385730;19;19935;-77
2023/08/05 02:42:00;;;;;;;;;;;18.60;92.70;;;;;;7389552;19;19914;-76
2023/08/05 02:44:29;;;;;;;;;;;18.60;92.50;;;;;;7410335;19;19915;-77
2023/08/05 02:46:57;;;;;;;;;;;18.50;92.40;;;;;;7386694;19;19915;-76
2023/08/05 02:49:26;;;;;;;;;;;18.40;92.50;;;;;;7385485;19;19911;-76
2023/08/05 02:51:54;;;;;;;;;;;18.40;92.40;;;;;;7385985;19;19927;-76
2023/08/05 02:54:25;;;;;;;;;;;18.40;92.20;;;;;;7387287;19;20007;-76
2023/08/05 02:56:53;;;;;;;;;;;18.30;92.20;;;;;;7397957;19;20231;-76
2023/08/05 02:59:22;;;;;;;;;;;18.30;92.30;;;;;;7409384;19;19925;-77
2023/08/05 03:01:50;;;;;;;;;;;18.30;92.40;;;;;;7387011;19;19919;-76
2023/08/05 03:04:19;;;;;;;;;;;18.30;92.50;;;;;;7388006;19;20149;-77
2023/08/05 03:06:47;;;;;;;;;;;18.20;92.50;;;;;;7388264;19;19911;-77
2023/08/05 03:09:16;;;;;;;;;;;18.20;92.50;;;;;;7388087;19;19932;-77
2023/08/05 03:11:47;;;;;;;;;;;18.20;92.40;;;;;;7408428;19;19928;-77
2023/08/05 03:14:15;;;;;;;;;;;18.20;92.30;;;;;;7387576;19;19919;-76
2023/08/05 03:16:44;;;;;;;;;;;18.10;92.40;;;;;;7386548;19;19931;-77
2023/08/05 03:19:12;;;;;;;;;;;18.10;92.90;;;;;;7388231;19;19939;-77
2023/08/05 03:21:41;;;;;;;;;;;18.10;92.50;;;;;;7389343;19;19915;-78
2023/08/05 03:24:09;;;;;;;;;;;18.10;92.50;;;;;;7388928;19;19920;-76
2023/08/05 03:26:38;;;;;;;;;;;18.10;92.40;;;;;;7410314;19;19915;-76
2023/08/05 03:29:09;;;;;;;;;;;18.10;92.40;;;;;;7386968;19;19910;-76
2023/08/05 03:31:38;;;;;;;;;;;18.10;92.30;;;;;;7386725;19;20180;-77
2023/08/05 03:34:07;;;;;;;;;;;18.00;92.30;;;;;;7388547;19;19928;-76
2023/08/05 03:36:36;;;;;;;;;;;18.00;92.50;;;;;;7389104;19;19915;-77
2023/08/05 03:39:04;;;;;;;;;;;18.00;92.50;;;;;;7388996;19;19944;-76
2023/08/05 03:41:33;;;;;;;;;;;18.00;92.60;;;;;;7408777;19;20258;-76
2023/08/05 03:44:01;;;;;;;;;;;18.00;92.60;;;;;;7385498;19;19968;-77
2023/08/05 03:46:32;;;;;;;;;;;18.10;92.60;;;;;;7385396;19;19911;-77
2023/08/05 03:49:02;;;;;;;;;;;18.10;92.60;;;;;;7383769;19;20116;-76
2023/08/05 03:51:30;;;;;;;;;;;18.10;92.60;;;;;;7388440;19;19918;-77
2023/08/05 03:53:59;;;;;;;;;;;18.20;92.60;;;;;;7393042;19;19928;-77
2023/08/05 03:56:27;;;;;;;;;;;18.20;92.50;;;;;;7414577;19;19915;-77
2023/08/05 03:58:56;;;;;;;;;;;18.20;92.50;;;;;;7393331;19;19911;-77
2023/08/05 04:01:26;;;;;;;;;;;18.20;92.50;;;;;;7394150;19;19911;-77
2023/08/05 04:03:57;;;;;;;;;;;18.20;92.70;;;;;;7387267;19;19907;-77
2023/08/05 04:06:26;;;;;;;;;;;18.20;92.80;;;;;;7386323;19;19931;-77
2023/08/05 04:08:54;;;;;;;;;;;18.20;92.80;;;;;;7389890;19;19915;-76
2023/08/05 04:11:23;;;;;;;;;;;18.20;92.90;;;;;;7406920;19;20179;-77
2023/08/05 04:13:52;;;;;;;;;;;18.20;92.80;;;;;;7384205;19;20255;-77
2023/08/05 04:16:22;;;;;;;;;;;18.30;93.00;;;;;;7384914;19;19907;-77
2023/08/05 04:18:52;;;;;;;;;;;18.30;93.00;;;;;;7385271;19;20234;-77
2023/08/05 04:21:28;;;;;;;;;;;18.30;93.00;;;;;;7385719;19;19903;-77
2023/08/05 04:23:56;;;;;;;;;;;18.30;93.00;;;;;;7386378;19;19942;-77
2023/08/05 04:26:25;;;;;;;;;;;18.40;93.10;;;;;;7408093;19;20223;-77
2023/08/05 04:28:53;;;;;;;;;;;18.40;93.10;;;;;;7386203;19;19924;-78
2023/08/05 04:31:22;;;;;;;;;;;18.40;93.00;;;;;;7387689;19;19924;-78
2023/08/05 04:33:50;;;;;;;;;;;18.40;92.90;;;;;;7386279;19;19918;-76
2023/08/05 04:36:19;;;;;;;;;;;18.40;93.30;;;;;;7385316;19;19924;-78
2023/08/05 04:38:51;;;;;;;;;;;18.40;93.00;;;;;;7407287;19;20120;-77
2023/08/05 04:41:19;;;;;;;;;;;18.40;92.90;;;;;;7387242;19;19917;-78
2023/08/05 04:43:48;;;;;;;;;;;18.30;93.20;;;;;;7379508;19;19924;-77
2023/08/05 04:46:16;;;;;;;;;;;18.30;93.00;;;;;;7380236;19;20252;-77
2023/08/05 04:48:45;;;;;;;;;;;18.30;93.20;;;;;;7378217;19;19917;-77
2023/08/05 04:51:13;;;;;;;;;;;18.30;93.30;;;;;;7378253;19;20253;-77
2023/08/05 04:53:42;;;;;;;;;;;18.30;93.30;;;;;;7401385;19;19914;-77
2023/08/05 04:56:13;;;;;;;;;;;18.30;93.20;;;;;;7379220;19;19939;-77
2023/08/05 04:58:41;;;;;;;;;;;18.40;93.30;;;;;;7378637;19;19910;-76
2023/08/05 05:01:10;;;;;;;;;;;18.40;93.30;;;;;;7379903;19;19965;-76
2023/08/05 05:03:38;;;;;;;;;;;18.40;93.40;;;;;;7384760;19;19907;-76
2023/08/05 05:06:08;;;;;;;;;;;18.40;93.50;;;;;;7386427;19;19922;-77
2023/08/05 05:08:36;;;;;;;;;;;18.40;93.50;;;;;;7407880;19;19910;-77
2023/08/05 05:11:05;;;;;;;;;;;18.40;93.50;;;;;;7385018;19;19966;-77
2023/08/05 05:13:36;;;;;;;;;;;18.40;93.50;;;;;;7386346;19;19926;-77
2023/08/05 05:16:05;;;;;;;;;;;18.40;93.60;;;;;;7386673;19;20294;-77
2023/08/05 05:18:33;;;;;;;;;;;18.40;93.50;;;;;;7386486;19;20135;-77
2023/08/05 05:21:03;;;;;;;;;;;18.50;93.60;;;;;;7386000;19;19911;-77
2023/08/05 05:23:31;;;;;;;;;;;18.50;93.60;;;;;;7407874;19;19927;-77
2023/08/05 05:26:00;;;;;;;;;;;18.50;93.70;;;;;;7385404;19;19927;-77
2023/08/05 05:28:28;;;;;;;;;;;18.50;93.70;;;;;;7386229;19;19911;-75
2023/08/05 05:30:59;;;;;;;;;;;18.50;93.70;;;;;;7387679;19;19932;-76
2023/08/05 05:33:28;;;;;;;;;;;18.60;93.70;;;;;;7384987;19;19911;-77
2023/08/05 05:35:56;;;;;;;;;;;18.60;93.70;;;;;;7386168;19;19932;-76
2023/08/05 05:38:25;;;;;;;;;;;18.70;93.50;;;;;;7406845;19;20314;-77
2023/08/05 05:40:54;;;;;;;;;;;18.70;93.40;;;;;;7385104;19;19910;-77
2023/08/05 05:43:22;;;;;;;;;;;18.70;93.50;;;;;;7386146;19;19998;-76
2023/08/05 05:45:54;;;;;;;;;;;18.80;93.70;;;;;;7386293;19;19916;-76
2023/08/05 05:48:25;;;;;;;;;;;18.80;93.80;;;;;;7386726;19;19915;-76
2023/08/05 05:50:54;;;;;;;;;;;18.90;93.80;;;;;;7391542;19;19915;-76
2023/08/05 05:53:22;;;;;;;;;;;18.90;93.80;;;;;;7404246;19;19911;-76
2023/08/05 05:55:53;;;;;;;;;;;18.90;93.90;;;;;;7384852;19;20006;-76
2023/08/05 05:58:21;;;;;;;;;;;18.90;94.30;;;;;;7384420;19;19962;-76
2023/08/05 06:00:50;;;;;;;;;;;18.90;94.00;;;;;;7387036;19;20131;-76
2023/08/05 06:03:18;;;;;;;;;;;19.00;94.00;;;;;;7386449;19;19910;-76
2023/08/05 06:05:50;;;;;;;;;;;19.00;94.00;;;;;;7410444;19;19911;-76
2023/08/05 06:08:19;;;;;;;;;;;19.10;94.10;;;;;;7389737;19;19907;-75
2023/08/05 06:10:47;;;;;;;;;;;19.10;94.00;;;;;;7388220;19;19913;-76
2023/08/05 06:13:16;;;;;;;;;;;19.20;93.90;;;;;;7388705;19;19907;-77
2023/08/05 06:15:45;;;;;;;;;;;19.20;93.80;;;;;;7386055;19;20250;-76
2023/08/05 06:18:13;;;;;;;;;;;19.20;93.70;;;;;;7383432;19;19954;-75
2023/08/05 06:20:42;;;;;;;;;;;19.30;93.60;;;;;;7406980;19;19911;-76
2023/08/05 06:23:14;;;;;;;;;;;19.40;93.50;;;;;;7384416;19;19924;-75
2023/08/05 06:25:42;;;;;;;;;;;19.40;93.20;;;;;;7384700;19;19903;-76
2023/08/05 06:28:11;;;;;;;;;;;19.50;93.20;;;;;;7384289;19;19923;-77
2023/08/05 06:30:44;;;;;;;;;;;19.50;92.90;;;;;;7383818;19;19911;-76
2023/08/05 06:33:13;;;;;;;;;;;19.40;92.00;;;;;;7382259;19;19924;-77
2023/08/05 06:35:41;;;;;;;;;;;19.30;91.80;;;;;;7405355;19;19919;-76
2023/08/05 06:38:12;;;;;;;;;;;19.30;92.00;;;;;;7383100;19;19915;-75
2023/08/05 06:40:45;;;;;;;;;;;19.30;92.00;;;;;;7383912;19;20215;-76
2023/08/05 06:43:13;;;;;;;;;;;19.40;92.10;;;;;;7384066;19;19911;-75
2023/08/05 06:45:41;;;;;;;;;;;19.40;92.20;;;;;;7383869;19;19927;-76
2023/08/05 06:48:10;;;;;;;;;;;19.50;91.90;;;;;;7383527;19;20228;-75
2023/08/05 06:50:38;;;;;;;;;;;19.50;91.70;;;;;;7403969;19;19931;-76
2023/08/05 06:53:07;;;;;;;;;;;19.60;92.00;;;;;;7380976;19;20337;-76
2023/08/05 06:55:38;;;;;;;;;;;19.50;91.70;;;;;;7384314;19;19915;-76
2023/08/05 06:58:07;;;;;;;;;;;19.60;91.50;;;;;;7383835;19;19911;-76
2023/08/05 07:00:35;;;;;;;;;;;19.60;91.50;;;;;;7380854;19;19907;-76
2023/08/05 07:03:04;;;;;;;;;;;19.50;91.50;;;;;;7383802;19;19924;-76
2023/08/05 07:05:32;;;;;;;;;;;19.40;91.40;;;;;;7404118;19;19915;-76
2023/08/05 07:08:01;;;;;;;;;;;19.40;91.50;;;;;;7382216;19;19922;-76
2023/08/05 07:10:29;;;;;;;;;;;19.20;91.70;;;;;;7382377;19;20165;-77
2023/08/05 07:13:05;;;;;;;;;;;19.20;91.80;;;;;;7382441;19;19907;-77
2023/08/05 07:15:34;;;;;;;;;;;19.30;91.90;;;;;;7383354;19;19942;-76
2023/08/05 07:18:07;;;;;;;;;;;19.40;91.90;;;;;;7382152;19;20424;-75
2023/08/05 07:20:36;;;;;;;;;;;19.50;91.80;;;;;;7404362;19;19915;-76
2023/08/05 07:23:04;;;;;;;;;;;19.60;91.30;;;;;;7384564;19;19907;-76
2023/08/05 07:25:35;;;;;;;;;;;19.50;91.20;;;;;;7380074;19;19911;-77
2023/08/05 07:28:06;;;;;;;;;;;19.50;91.20;;;;;;7381610;19;19970;-76
2023/08/05 07:30:35;;;;;;;;;;;19.70;91.20;;;;;;7382956;19;19907;-77
2023/08/05 07:33:04;;;;;;;;;;;19.80;90.90;;;;;;7381106;19;19914;-77
2023/08/05 07:35:33;;;;;;;;;;;19.60;90.70;;;;;;7403599;19;20419;-77
2023/08/05 07:38:09;;;;;;;;;;;19.70;90.80;;;;;;7382358;19;19915;-76
2023/08/05 07:40:38;;;;;;;;;;;19.70;90.60;;;;;;7381656;19;20226;-77
2023/08/05 07:43:10;;;;;;;;;;;19.80;90.70;;;;;;7381841;19;19906;-77
2023/08/05 07:45:38;;;;;;;;;;;19.80;90.60;;;;;;7382032;19;19958;-76
2023/08/05 07:48:09;;;;;;;;;;;19.80;90.30;;;;;;7381912;19;19922;-76
2023/08/05 07:50:38;;;;;;;;;;;19.90;90.10;;;;;;7401426;19;19935;-76
2023/08/05 07:53:06;;;;;;;;;;;19.70;90.20;;;;;;7379864;19;19928;-77
2023/08/05 07:55:37;;;;;;;;;;;19.70;90.20;;;;;;7381157;19;20252;-76
2023/08/05 07:58:05;;;;;;;;;;;19.70;90.10;;;;;;7381270;19;19918;-76
2023/08/05 08:00:36;;;;;;;;;;;19.80;90.40;;;;;;7381550;19;19990;-75
2023/08/05 08:03:05;;;;;;;;;;;19.90;90.40;;;;;;7380846;19;19914;-76
2023/08/05 08:05:33;;;;;;;;;;;19.80;90.00;;;;;;7402711;19;19929;-75
2023/08/05 08:08:02;;;;;;;;;;;19.90;90.20;;;;;;7380668;19;19906;-75
2023/08/05 08:10:31;;;;;;;;;;;19.60;89.60;;;;;;7381026;19;19971;-77
2023/08/05 08:13:01;;;;;;;;;;;19.70;89.70;;;;;;7380664;19;19931;-75
2023/08/05 08:15:31;;;;;;;;;;;19.70;89.00;;;;;;7380883;19;19911;-76
2023/08/05 08:18:02;;;;;;;;;;;19.80;89.10;;;;;;7380866;19;19906;-75
2023/08/05 08:20:30;;;;;;;;;;;19.70;89.00;;;;;;7407213;19;19923;-76
2023/08/05 08:22:59;;;;;;;;;;;19.70;89.30;;;;;;7387130;19;19970;-77
2023/08/05 08:25:27;;;;;;;;;;;19.70;89.80;;;;;;7388106;19;20547;-77
2023/08/05 08:27:56;;;;;;;;;;;19.80;89.30;;;;;;7388522;19;19973;-77
2023/08/05 08:30:24;;;;;;;;;;;19.90;89.40;;;;;;7384710;19;19911;-76
2023/08/05 08:32:53;;;;;;;;;;;20.00;89.70;;;;;;7399558;19;19907;-77
2023/08/05 08:35:24;;;;;;;;;;;20.10;89.70;;;;;;7401559;19;19935;-76
2023/08/05 08:37:52;;;;;;;;;;;20.20;89.40;;;;;;7378749;19;19914;-77
2023/08/05 08:40:23;;;;;;;;;;;20.30;89.40;;;;;;7380285;19;19924;-78
2023/08/05 08:42:54;;;;;;;;;;;20.30;88.70;;;;;;7378576;19;19956;-76
2023/08/05 08:45:24;;;;;;;;;;;20.30;88.90;;;;;;7380556;19;19907;-77
2023/08/05 08:47:52;;;;;;;;;;;20.30;89.10;;;;;;7401283;19;20214;-78
2023/08/05 08:50:23;;;;;;;;;;;20.30;89.10;;;;;;7377725;19;19952;-76
2023/08/05 08:52:53;;;;;;;;;;;20.30;88.50;;;;;;7378057;19;20215;-77
2023/08/05 08:55:21;;;;;;;;;;;20.30;88.70;;;;;;7380540;19;19907;-78
2023/08/05 08:57:50;;;;;;;;;;;20.30;88.60;;;;;;7384892;19;19926;-79
2023/08/05 09:00:29;;;;;;;;;;;20.20;88.90;;;;;;7387287;19;19915;-78
2023/08/05 09:02:57;;;;;;;;;;;20.30;90.10;;;;;;7385453;19;20139;-75
2023/08/05 09:05:32;;;;;;;;;;;20.30;90.30;;;;;;7406935;19;19928;-81
2023/08/05 09:08:05;;;;;;;;;;;20.40;90.10;;;;;;7383345;19;19928;-77
2023/08/05 09:10:33;;;;;;;;;;;20.30;89.70;;;;;;7378987;19;19910;-77
2023/08/05 09:13:02;;;;;;;;;;;20.40;89.70;;;;;;7379275;19;19918;-78
2023/08/05 09:15:35;;;;;;;;;;;20.30;90.10;;;;;;7385069;19;19940;-78
2023/08/05 09:18:05;;;;;;;;;;;20.30;90.20;;;;;;7380100;19;19923;-77
2023/08/05 09:20:41;;;;;;;;;;;20.30;90.10;;;;;;7403315;19;19928;-79
2023/08/05 09:23:16;;;;;;;;;;;20.30;90.20;;;;;;7386644;19;19921;-77
2023/08/05 09:25:51;;;;;;;;;;;20.30;90.10;;;;;;7382657;19;19907;-78
2023/08/05 09:28:32;;;;;;;;;;;20.40;90.20;;;;;;7279472;19;19911;-79
2023/08/05 09:34:37;;;;;;;;;;;20.60;89.40;;;;;;7382515;19;19927;-82
2023/08/05 09:37:13;;;;;;;;;;;20.60;88.70;;;;;;7385435;19;19914;-78
2023/08/05 09:39:50;;;;;;;;;;;20.60;90.00;;;;;;7386240;19;19907;-78
2023/08/05 09:45:08;;;;;;;;;;;20.60;90.00;;;;;;7384108;19;19911;-79
2023/08/05 09:47:49;;;;;;;;;;;;;;;;;;;;;
2023/08/05 09:50:19;;;;;;;;;;;20.70;90.10;;;;;;7411726;19;19911;-77
2023/08/05 09:52:52;;;;;;;;;;;20.70;90.20;;;;;;7387569;19;19903;-78
2023/08/05 09:55:21;;;;;;;;;;;20.70;90.00;;;;;;7391202;19;19935;-77
2023/08/05 09:57:53;;;;;;;;;;;20.70;90.40;;;;;;7387696;19;19910;-77
2023/08/05 10:00:21;;;;;;;;;;;20.70;90.70;;;;;;7385730;19;19919;-78
2023/08/05 10:02:50;;;;;;;;;;;20.60;90.70;;;;;;7384025;19;20256;-78
2023/08/05 10:05:22;;;;;;;;;;;20.50;91.00;;;;;;7409252;19;19949;-79
2023/08/05 10:07:55;;;;;;;;;;;20.50;91.20;;;;;;7388859;19;19911;-79
2023/08/05 10:10:24;;;;;;;;;;;20.50;91.10;;;;;;7385508;19;19907;-75
2023/08/05 10:16:00;;;;;;;;;;;20.60;91.40;;;;;;7415315;19;20251;-80
2023/08/05 10:18:28;;;;;;;;;;;20.60;91.30;;;;;;7416602;19;19914;-76
2023/08/05 10:20:57;;;;;;;;;;;20.60;91.50;;;;;;7387789;19;19918;-76
2023/08/05 10:26:09;;;;;;;;;;;20.50;91.60;;;;;;7391733;19;19910;-77
2023/08/05 10:30:56;;;;;;;;;;;20.70;92.10;;;;;;7369904;19;19972;-77
2023/08/05 10:33:25;;;;;;;;;;;20.80;92.00;;;;;;7427044;19;19935;-78
2023/08/05 10:36:02;;;;;;;;;;;20.80;91.70;;;;;;7442746;19;19911;-78
2023/08/05 10:38:49;;;;;;;;;;;20.90;91.90;;;;;;7390839;19;19911;-77
2023/08/05 10:41:17;;;;;;;;;;;21.10;91.70;;;;;;7446225;19;19907;-77
2023/08/05 10:43:46;;;;;;;;;;;21.10;91.20;;;;;;7422072;19;19911;-77
2023/08/05 10:46:17;;;;;;;;;;;21.30;91.00;;;;;;7419213;19;20171;-77
2023/08/05 10:48:46;;;;;;;;;;;21.30;90.80;;;;;;7419203;19;19941;-79
2023/08/05 10:51:15;;;;;;;;;;;21.40;91.00;;;;;;7424106;19;19926;-79
2023/08/05 10:53:45;;;;;;;;;;;21.40;90.00;;;;;;7419307;19;19911;-78
2023/08/05 10:56:17;;;;;;;;;;;21.40;90.50;;;;;;7442608;19;19935;-77
2023/08/05 10:58:48;;;;;;;;;;;21.40;90.80;;;;;;7416484;19;19934;-77
2023/08/05 11:01:19;;;;;;;;;;;21.40;89.40;;;;;;7415865;19;20126;-78
2023/08/05 11:03:49;;;;;;;;;;;21.40;90.10;;;;;;7416453;19;19911;-77
2023/08/05 11:06:23;;;;;;;;;;;21.50;90.30;;;;;;7414838;19;19915;-77
2023/08/05 11:08:51;;;;;;;;;;;21.50;90.30;;;;;;7419572;19;19919;-77
2023/08/05 11:11:22;;;;;;;;;;;21.40;88.80;;;;;;7440807;19;19911;-76
2023/08/05 11:13:52;;;;;;;;;;;21.30;88.80;;;;;;7417281;19;19931;-77
2023/08/05 11:16:25;;;;;;;;;;;21.00;89.10;;;;;;7416480;19;19911;-76
2023/08/05 11:18:58;;;;;;;;;;;20.80;89.80;;;;;;7417244;19;20298;-78
2023/08/05 11:21:27;;;;;;;;;;;20.90;90.00;;;;;;7416789;19;20128;-77
2023/08/05 11:23:55;;;;;;;;;;;21.00;90.00;;;;;;7416446;19;19910;-77
2023/08/05 11:26:24;;;;;;;;;;;20.90;90.00;;;;;;7437835;19;19927;-77
2023/08/05 11:28:54;;;;;;;;;;;21.00;90.00;;;;;;7415299;19;19970;-78
2023/08/05 11:31:26;;;;;;;;;;;21.10;90.00;;;;;;7416779;19;19903;-77
2023/08/05 11:33:54;;;;;;;;;;;21.00;87.80;;;;;;7416297;19;19907;-77
2023/08/05 11:36:26;;;;;;;;;;;20.90;88.40;;;;;;7416713;19;20122;-77
2023/08/05 11:38:57;;;;;;;;;;;20.80;88.30;;;;;;7417307;19;20187;-76
2023/08/05 11:41:26;;;;;;;;;;;20.80;88.70;;;;;;7420168;19;19933;-77
2023/08/05 11:43:54;;;;;;;;;;;20.80;88.80;;;;;;7387836;19;19915;-77
2023/08/05 11:46:28;;;;;;;;;;;20.70;85.90;;;;;;7390545;19;19918;-76
2023/08/05 11:49:09;;;;;;;;;;;20.70;84.90;;;;;;7387071;19;20168;-77
2023/08/05 11:51:50;;;;;;;;;;;20.80;85.50;;;;;;7387625;19;20183;-79
2023/08/05 11:54:29;;;;;;;;;;;20.90;85.30;;;;;;7388037;19;19938;-77
2023/08/05 11:56:58;;;;;;;;;;;20.90;85.10;;;;;;7385711;19;19911;-77
2023/08/05 11:59:40;;;;;;;;;;;20.90;85.70;;;;;;7409872;19;20203;-76
2023/08/05 12:02:13;;;;;;;;;;;21.00;86.30;;;;;;7386651;19;19915;-77
2023/08/05 12:04:46;;;;;;;;;;;20.80;85.20;;;;;;7390569;19;20222;-76
2023/08/05 12:07:14;;;;;;;;;;;20.50;86.20;;;;;;7387203;19;19931;-77
2023/08/05 12:09:43;;;;;;;;;;;20.60;85.50;;;;;;7386342;19;19917;-77
2023/08/05 12:12:18;;;;;;;;;;;20.50;86.50;;;;;;7388614;19;19911;-76
2023/08/05 12:14:47;;;;;;;;;;;20.60;86.90;;;;;;7388219;19;19928;-77
2023/08/05 12:17:20;;;;;;;;;;;20.70;87.50;;;;;;7408268;19;20179;-77
2023/08/05 12:19:49;;;;;;;;;;;20.60;88.70;;;;;;7386217;19;20235;-77
2023/08/05 12:22:17;;;;;;;;;;;20.30;89.50;;;;;;7386683;19;19915;-76
2023/08/05 12:24:45;;;;;;;;;;;20.20;90.20;;;;;;7386304;19;19911;-77
2023/08/05 12:27:15;;;;;;;;;;;20.10;90.60;;;;;;7386449;19;19943;-77
2023/08/05 12:29:44;;;;;;;;;;;20.00;90.80;;;;;;7385088;19;19907;-77
2023/08/05 12:32:12;;;;;;;;;;;20.20;90.40;;;;;;7408643;19;19921;-77
2023/08/05 12:34:43;;;;;;;;;;;20.20;90.60;;;;;;7386606;19;19911;-77
2023/08/05 12:37:12;;;;;;;;;;;20.30;90.80;;;;;;7344555;19;19915;-78
2023/08/05 12:39:43;;;;;;;;;;;20.30;91.20;;;;;;7313753;19;19920;-79
2023/08/05 12:42:11;;;;;;;;;;;20.20;91.20;;;;;;7391490;19;20123;-77
2023/08/05 12:44:40;;;;;;;;;;;20.30;91.80;;;;;;7388946;19;19911;-78
2023/08/05 12:47:11;;;;;;;;;;;20.30;92.00;;;;;;7425720;19;19906;-79
2023/08/05 12:49:41;;;;;;;;;;;20.50;91.90;;;;;;7406347;19;19903;-78
2023/08/05 12:52:12;;;;;;;;;;;20.50;92.10;;;;;;7404014;19;19918;-78
2023/08/05 12:54:41;;;;;;;;;;;20.20;92.10;;;;;;7405905;19;19915;-78
2023/08/05 12:57:09;;;;;;;;;;;20.20;92.80;;;;;;7407532;19;19911;-78
2023/08/05 12:59:38;;;;;;;;;;;20.40;92.60;;;;;;7386236;19;20238;-77
2023/08/05 13:02:06;;;;;;;;;;;20.50;92.60;;;;;;7411914;19;19931;-78
2023/08/05 13:04:35;;;;;;;;;;;20.70;92.20;;;;;;7388674;19;19907;-80
2023/08/05 13:07:03;;;;;;;;;;;20.80;91.90;;;;;;7363435;19;20157;-76
2023/08/05 13:09:35;;;;;;;;;;;20.60;91.70;;;;;;7383900;19;19922;-76
2023/08/05 13:12:04;;;;;;;;;;;20.80;91.90;;;;;;7388156;19;19929;-78
2023/08/05 13:14:33;;;;;;;;;;;20.80;91.90;;;;;;7381982;19;19913;-76
2023/08/05 13:17:01;;;;;;;;;;;20.90;91.50;;;;;;7410054;19;19919;-77
2023/08/05 13:19:30;;;;;;;;;;;21.00;91.50;;;;;;7384696;19;19911;-77
2023/08/05 13:21:58;;;;;;;;;;;21.00;91.50;;;;;;7386479;19;19911;-77
2023/08/05 13:24:27;;;;;;;;;;;21.00;91.70;;;;;;7385766;19;20219;-77
2023/08/05 13:26:58;;;;;;;;;;;21.10;92.00;;;;;;7386967;19;19914;-77
2023/08/05 13:29:26;;;;;;;;;;;20.80;92.40;;;;;;7404756;19;19932;-77
2023/08/05 13:31:55;;;;;;;;;;;20.70;92.40;;;;;;7387349;19;20219;-78
2023/08/05 13:34:23;;;;;;;;;;;20.60;92.60;;;;;;7383488;19;19918;-79
2023/08/05 13:36:52;;;;;;;;;;;20.60;92.70;;;;;;7385467;19;19953;-77
2023/08/05 13:39:22;;;;;;;;;;;20.60;92.90;;;;;;7384193;19;20458;-77
2023/08/05 13:44:13;;;;;;;3.83;2.17;;;20.40;94.00;;;;;;6671348;19;14590175;-80
2023/08/05 13:46:42;;;;;;;5.00;2.50;;;20.20;95.00;;;;;;7425941;19;20015;-81
2023/08/05 13:49:11;;;;;;;4.55;2.45;;;20.50;94.70;;;;;;7403499;19;20389;-81
2023/08/05 13:51:40;;;;;;;4.70;2.38;;;20.50;94.20;;;;;;7418113;19;20030;-78
2023/08/05 14:17:08;;;;;;;2.10;1.60;;;20.50;94.90;;;;;;7442285;19;19985;-81
2023/08/05 14:19:38;;;;;;;5.25;2.10;;;20.60;94.90;;;;;;7416050;19;20090;-78
2023/08/05 14:31:27;;;;;;;2.17;1.70;;;20.60;95.00;;;;;;7422901;19;19998;-82
2023/08/05 14:33:56;;;;;;;4.63;1.55;;;20.70;95.20;;;;;;7418707;19;20030;-79
2023/08/05 14:36:25;;;;;;;3.53;1.42;;;20.80;95.10;;;;;;7417029;19;20215;-77
2023/08/05 14:38:54;;;;;;;2.55;1.90;;;20.60;94.70;;;;;;7417274;19;20010;-77
2023/08/05 14:41:23;;;;;;;4.40;2.40;;;20.60;95.00;;;;;;7438409;19;20030;-78
2023/08/05 14:43:52;;;;;;;3.95;2.80;;;20.70;95.10;;;;;;7413476;19;20016;-77
2023/08/05 14:46:21;;;;;;;4.15;1.83;;;20.70;95.20;;;;;;7417658;19;20010;-78
2023/08/05 14:48:52;;;;;;;2.95;1.90;;;20.80;94.90;;;;;;7419163;19;20014;-76
2023/08/05 14:51:20;;;;;;;;;;;20.80;94.80;;;;;;7415307;19;20228;-77
2023/08/05 14:53:49;;;;;;;2.28;1.50;;;20.90;94.70;;;;;;7408561;19;19935;-77
2023/08/05 14:56:18;;;;;;;3.20;1.65;;;20.90;94.60;;;;;;7407151;19;20011;-77
2023/08/05 14:58:46;;;;;;;4.85;1.63;;;20.50;94.80;;;;;;7386369;19;20023;-78
2023/08/05 15:01:18;;;;;;;4.75;1.60;;;20.50;95.10;;;;;;7386422;19;20006;-78
2023/08/05 15:03:48;;;;;;;4.63;1.95;;;20.30;95.20;;;;;;7392050;19;20392;-77
2023/08/05 15:06:20;;;;;;;3.03;2.00;;;20.40;95.50;;;;;;7396945;19;20006;-77
2023/08/05 15:08:53;;;;;;;3.28;1.90;;;20.40;95.70;;;;;;7396786;19;20003;-77
2023/08/05 15:11:22;;;;;;;3.03;2.28;;;20.40;95.70;;;;;;7417307;19;20387;-77
2023/08/05 15:13:51;;;;;;;2.70;2.00;;;20.50;95.60;;;;;;7389580;19;20014;-77